Time;durP1;ratioP1;P1;durP2;ratioP2;P2;SDS_P1;SDS_P2;PMS_P1;PMS_P2;Temp;Humidity;BMP_temperature;BMP_pressure;BME280_temperature;BME280_humidity;BME280_pressure;Samples;Min_cycle;Max_cycle;Signal;HPM_P1;HPM_P2
2021/06/29 00:00:05;;;;;;;6.20;5.67;;;16.60;99.90;;;;;;5033900;28;20447;-83
2021/06/29 00:02:32;;;;;;;5.77;5.37;;;16.50;99.90;;;;;;5033833;28;20454;-83
2021/06/29 00:04:59;;;;;;;5.73;5.30;;;16.50;99.90;;;;;;5033808;28;20454;-83
2021/06/29 00:07:26;;;;;;;6.03;5.50;;;16.50;99.90;;;;;;5033486;28;20459;-82
2021/06/29 00:09:52;;;;;;;5.90;5.40;;;16.40;99.90;;;;;;5033748;28;20449;-83
2021/06/29 00:12:19;;;;;;;6.10;5.60;;;16.50;99.90;;;;;;5033665;28;20947;-83
2021/06/29 00:14:47;;;;;;;6.00;5.40;;;16.50;99.90;;;;;;5033639;28;20454;-83
2021/06/29 00:17:14;;;;;;;6.17;5.57;;;16.50;99.90;;;;;;5033465;28;20469;-83
2021/06/29 00:19:41;;;;;;;5.93;5.43;;;16.60;99.90;;;;;;5033604;28;20484;-83
2021/06/29 00:22:08;;;;;;;6.30;5.80;;;16.60;99.90;;;;;;5033590;28;20950;-83
2021/06/29 00:24:35;;;;;;;5.73;5.23;;;16.70;99.90;;;;;;5033729;28;20455;-83
2021/06/29 00:27:01;;;;;;;6.00;5.47;;;16.70;99.90;;;;;;5033415;28;20467;-83
2021/06/29 00:29:28;;;;;;;6.00;5.50;;;16.70;99.90;;;;;;5033447;28;20443;-83
2021/06/29 00:31:56;;;;;;;5.77;5.33;;;16.70;99.90;;;;;;5033424;28;20459;-83
2021/06/29 00:34:23;;;;;;;6.37;5.83;;;16.70;99.90;;;;;;5033158;28;20438;-83
2021/06/29 00:36:50;;;;;;;6.13;5.53;;;16.80;99.90;;;;;;5033326;28;20470;-83
2021/06/29 00:39:17;;;;;;;7.53;5.90;;;16.70;99.90;;;;;;5033049;28;20516;-83
2021/06/29 00:41:43;;;;;;;7.07;6.37;;;16.60;99.90;;;;;;5033866;28;20455;-83
2021/06/29 00:44:19;;;;;;;7.70;6.20;;;16.70;99.90;;;;;;5033489;28;20458;-83
2021/06/29 00:46:46;;;;;;;7.20;6.50;;;16.60;99.90;;;;;;5032803;28;20845;-83
2021/06/29 00:49:14;;;;;;;7.97;7.17;;;16.70;99.90;;;;;;5032946;28;20950;-83
2021/06/29 00:51:41;;;;;;;6.40;5.80;;;16.70;99.90;;;;;;5033274;28;20462;-83
2021/06/29 00:54:08;;;;;;;7.23;6.20;;;16.70;99.90;;;;;;5033196;28;20441;-83
2021/06/29 00:56:37;;;;;;;6.17;5.57;;;16.80;99.90;;;;;;5033112;28;20446;-83
2021/06/29 00:59:04;;;;;;;6.23;5.73;;;16.80;99.90;;;;;;5033417;28;20478;-83
2021/06/29 01:01:31;;;;;;;6.70;6.07;;;16.70;99.90;;;;;;5032931;28;20435;-83
2021/06/29 01:03:58;;;;;;;5.33;4.93;;;16.80;99.90;;;;;;5033112;28;20546;-84
2021/06/29 01:06:28;;;;;;;5.93;5.40;;;16.80;99.90;;;;;;5033926;28;20469;-83
2021/06/29 01:08:55;;;;;;;6.23;5.70;;;16.80;99.90;;;;;;5032795;28;20781;-83
2021/06/29 01:11:22;;;;;;;6.80;6.30;;;16.70;99.90;;;;;;5033086;28;20820;-83
2021/06/29 01:13:49;;;;;;;5.17;4.77;;;16.80;99.90;;;;;;5033035;28;20458;-83
2021/06/29 01:16:16;;;;;;;5.10;4.70;;;16.70;99.90;;;;;;5033012;28;20453;-83
2021/06/29 01:18:45;;;;;;;5.03;4.63;;;16.70;99.90;;;;;;5032656;28;20482;-83
2021/06/29 01:21:15;;;;;;;4.87;4.47;;;16.70;99.90;;;;;;5032746;28;20439;-83
2021/06/29 01:23:45;;;;;;;5.63;5.00;;;16.70;99.90;;;;;;5032679;28;20915;-83
2021/06/29 01:26:15;;;;;;;4.50;4.03;;;16.70;99.90;;;;;;5032846;28;20441;-82
2021/06/29 01:28:52;;;;;;;4.97;3.97;;;16.70;99.90;;;;;;5032552;28;21059;-82
2021/06/29 01:31:19;;;;;;;4.07;3.80;;;16.80;99.90;;;;;;5032949;28;20438;-83
2021/06/29 01:33:46;;;;;;;5.40;4.03;;;16.70;99.90;;;;;;5032856;28;20474;-83
2021/06/29 01:36:16;;;;;;;4.10;3.83;;;16.70;99.90;;;;;;5032577;28;20455;-82
2021/06/29 01:38:43;;;;;;;3.70;3.50;;;16.70;99.90;;;;;;5032659;28;20495;-82
2021/06/29 01:41:11;;;;;;;4.77;4.37;;;16.70;99.90;;;;;;5032522;28;20801;-82
2021/06/29 01:43:43;;;;;;;4.43;4.03;;;16.70;99.90;;;;;;5032453;28;20835;-82
2021/06/29 01:46:10;;;;;;;4.53;4.23;;;16.60;99.90;;;;;;5032373;28;21032;-82
2021/06/29 01:48:37;;;;;;;5.80;5.20;;;16.60;99.90;;;;;;5032358;28;20997;-82
2021/06/29 01:51:04;;;;;;;5.57;5.17;;;16.60;99.90;;;;;;5032711;28;20792;-82
2021/06/29 01:53:32;;;;;;;4.50;4.10;;;16.60;99.90;;;;;;5035815;28;20537;-82
2021/06/29 01:55:59;;;;;;;5.23;4.83;;;16.60;99.90;;;;;;5036390;28;20446;-82
2021/06/29 01:58:27;;;;;;;4.90;4.50;;;16.60;99.90;;;;;;5037495;28;20494;-83
2021/06/29 02:00:55;;;;;;;4.73;4.33;;;16.60;99.90;;;;;;5036160;28;20469;-82
2021/06/29 02:03:22;;;;;;;5.40;5.00;;;16.60;99.90;;;;;;5035785;28;20443;-83
2021/06/29 02:05:49;;;;;;;5.47;5.10;;;16.60;99.90;;;;;;5035769;28;20454;-82
2021/06/29 02:08:16;;;;;;;5.20;4.47;;;16.60;99.90;;;;;;5035623;28;21008;-82
2021/06/29 02:10:44;;;;;;;5.00;4.70;;;16.60;99.90;;;;;;5035723;28;20799;-82
2021/06/29 02:13:11;;;;;;;4.63;4.33;;;16.60;99.90;;;;;;5036033;28;20455;-82
2021/06/29 02:15:38;;;;;;;5.40;5.00;;;16.60;99.90;;;;;;5036047;28;20462;-82
2021/06/29 02:18:04;;;;;;;5.63;5.13;;;16.50;99.90;;;;;;5035389;28;20482;-82
2021/06/29 02:20:31;;;;;;;4.77;4.47;;;16.50;99.90;;;;;;5035527;28;20435;-82
2021/06/29 02:22:58;;;;;;;5.07;4.67;;;16.60;99.90;;;;;;5035419;28;20922;-83
2021/06/29 02:25:25;;;;;;;5.40;4.90;;;16.50;99.90;;;;;;5035898;28;20453;-82
2021/06/29 02:27:53;;;;;;;5.37;5.07;;;16.50;99.90;;;;;;5035833;28;20466;-82
2021/06/29 02:30:20;;;;;;;6.50;5.40;;;16.60;99.90;;;;;;5035300;28;20451;-82
2021/06/29 02:32:47;;;;;;;5.07;4.67;;;16.70;99.90;;;;;;5035227;28;20964;-82
2021/06/29 02:35:14;;;;;;;6.00;5.50;;;16.70;99.90;;;;;;5035519;28;20446;-82
2021/06/29 02:37:41;;;;;;;4.90;4.57;;;16.60;99.90;;;;;;5035542;28;20497;-82
2021/06/29 02:40:09;;;;;;;5.30;4.90;;;16.70;99.90;;;;;;5035215;28;20486;-82
2021/06/29 02:42:36;;;;;;;5.87;5.23;;;16.60;99.90;;;;;;5035044;28;20458;-83
2021/06/29 02:45:07;;;;;;;4.90;4.53;;;16.60;99.90;;;;;;5034831;28;20847;-83
2021/06/29 02:47:34;;;;;;;5.70;5.20;;;16.70;99.90;;;;;;5035274;28;20553;-83
2021/06/29 02:50:01;;;;;;;6.50;6.00;;;16.70;99.90;;;;;;5035227;28;20454;-82
2021/06/29 02:52:28;;;;;;;6.47;5.47;;;16.70;99.90;;;;;;5034884;28;20450;-82
2021/06/29 02:54:55;;;;;;;5.93;4.80;;;16.70;99.90;;;;;;5035117;28;20457;-83
2021/06/29 02:57:21;;;;;;;6.30;5.70;;;16.70;99.90;;;;;;5035046;28;20798;-84
2021/06/29 02:59:48;;;;;;;6.17;5.57;;;16.70;99.90;;;;;;5035004;28;20490;-84
2021/06/29 03:02:16;;;;;;;5.40;5.00;;;16.70;99.90;;;;;;5035108;28;20835;-85
2021/06/29 03:04:43;;;;;;;5.53;4.97;;;16.60;99.90;;;;;;5034062;28;20450;-86
2021/06/29 03:07:10;;;;;;;5.20;4.80;;;16.60;99.90;;;;;;5034784;28;20470;-86
2021/06/29 03:09:37;;;;;;;4.73;4.43;;;16.60;99.90;;;;;;5034670;28;20447;-86
2021/06/29 03:12:05;;;;;;;4.20;3.80;;;16.60;99.90;;;;;;5034855;28;20451;-86
2021/06/29 03:14:35;;;;;;;4.07;3.50;;;16.50;99.90;;;;;;5034804;28;20451;-85
2021/06/29 03:17:02;;;;;;;7.00;4.47;;;16.40;99.90;;;;;;5034824;28;20826;-85
2021/06/29 03:19:31;;;;;;;3.77;3.57;;;16.30;99.90;;;;;;5034678;28;20509;-85
2021/06/29 03:21:58;;;;;;;5.10;4.70;;;16.30;99.90;;;;;;5034658;28;20450;-85
2021/06/29 03:24:24;;;;;;;4.70;4.40;;;16.30;99.90;;;;;;5034616;28;20442;-85
2021/06/29 03:26:51;;;;;;;4.80;4.07;;;16.30;99.90;;;;;;5034422;28;20455;-84
2021/06/29 03:29:18;;;;;;;4.30;4.00;;;16.40;99.90;;;;;;5034486;28;20448;-84
2021/06/29 03:31:45;;;;;;;5.57;5.07;;;16.40;99.90;;;;;;5034471;28;20462;-83
2021/06/29 03:34:12;;;;;;;5.87;5.07;;;16.40;99.90;;;;;;5034178;28;20799;-84
2021/06/29 03:36:41;;;;;;;6.93;4.40;;;16.40;99.90;;;;;;5034235;28;20459;-84
2021/06/29 03:39:10;;;;;;;9.43;4.97;;;16.40;99.90;;;;;;5034145;28;20478;-84
2021/06/29 03:41:37;;;;;;;4.77;4.20;;;16.40;99.90;;;;;;5034196;28;20509;-84
2021/06/29 03:44:04;;;;;;;4.83;4.40;;;16.40;99.90;;;;;;5034198;28;20459;-84
2021/06/29 03:46:32;;;;;;;4.53;4.23;;;16.50;99.90;;;;;;5033676;28;20478;-84
2021/06/29 03:48:58;;;;;;;4.13;3.70;;;16.40;99.90;;;;;;5034155;28;20470;-84
2021/06/29 03:51:25;;;;;;;3.90;3.60;;;16.40;99.90;;;;;;5034119;28;20453;-84
2021/06/29 03:53:53;;;;;;;4.50;4.20;;;16.40;99.90;;;;;;5033806;28;20434;-85
2021/06/29 03:56:28;;;;;;;4.30;4.00;;;16.30;99.90;;;;;;5034017;28;20446;-84
2021/06/29 03:58:57;;;;;;;4.27;3.87;;;16.30;99.90;;;;;;5034310;28;20993;-84
2021/06/29 04:01:24;;;;;;;4.10;3.80;;;16.30;99.90;;;;;;5034214;28;20439;-83
2021/06/29 04:03:54;;;;;;;4.40;4.00;;;16.30;99.90;;;;;;5033586;28;20961;-84
2021/06/29 04:06:21;;;;;;;4.63;4.33;;;16.20;99.90;;;;;;5033978;28;20450;-84
2021/06/29 04:08:48;;;;;;;4.07;3.73;;;16.20;99.90;;;;;;5033474;28;20455;-85
2021/06/29 04:11:16;;;;;;;4.10;3.80;;;16.20;99.90;;;;;;5033811;28;20447;-84
2021/06/29 04:13:43;;;;;;;3.60;3.40;;;16.30;99.90;;;;;;5033762;28;20447;-86
2021/06/29 04:16:10;;;;;;;6.10;4.40;;;16.30;99.90;;;;;;5033484;28;20446;-84
2021/06/29 04:18:37;;;;;;;3.80;3.60;;;16.40;99.90;;;;;;5033408;28;20462;-87
2021/06/29 04:21:04;;;;;;;3.83;3.53;;;16.40;99.90;;;;;;5033609;28;20445;-86
2021/06/29 04:23:31;;;;;;;4.97;3.97;;;16.30;99.90;;;;;;5033860;28;20442;-85
2021/06/29 04:25:58;;;;;;;4.10;3.70;;;16.30;99.90;;;;;;5033835;28;20832;-87
2021/06/29 04:28:26;;;;;;;5.83;5.03;;;16.20;99.90;;;;;;5033837;28;20451;-87
2021/06/29 04:30:53;;;;;;;5.13;4.73;;;16.20;99.90;;;;;;5033734;28;20439;-86
2021/06/29 04:33:20;;;;;;;5.10;4.70;;;16.10;99.90;;;;;;5034001;28;20464;-87
2021/06/29 04:35:47;;;;;;;5.40;4.90;;;16.20;99.90;;;;;;5034066;28;20439;-87
2021/06/29 04:38:13;;;;;;;5.10;4.70;;;16.20;99.90;;;;;;5033850;28;20481;-87
2021/06/29 04:40:40;;;;;;;8.90;5.10;;;16.30;99.90;;;;;;5033640;28;20485;-87
2021/06/29 04:43:07;;;;;;;6.57;5.37;;;16.30;99.90;;;;;;5033898;28;20435;-87
2021/06/29 04:45:35;;;;;;;5.40;4.97;;;16.40;99.90;;;;;;5033509;28;20497;-87
2021/06/29 04:48:02;;;;;;;5.10;4.77;;;16.40;99.90;;;;;;5033748;28;20474;-87
2021/06/29 04:50:29;;;;;;;5.33;4.87;;;16.40;99.90;;;;;;5033745;28;20954;-87
2021/06/29 04:52:56;;;;;;;5.13;4.63;;;16.40;99.90;;;;;;5033563;28;20439;-87
2021/06/29 04:55:23;;;;;;;5.10;4.60;;;16.40;99.90;;;;;;5033612;28;20438;-87
2021/06/29 04:57:49;;;;;;;5.07;4.67;;;16.50;99.90;;;;;;5033686;28;20473;-87
2021/06/29 05:00:19;;;;;;;5.80;5.30;;;16.50;99.90;;;;;;5033409;28;20565;-87
2021/06/29 05:02:48;;;;;;;5.30;4.90;;;16.50;99.90;;;;;;5033789;28;20461;-87
2021/06/29 05:05:17;;;;;;;5.20;4.80;;;16.50;99.90;;;;;;5034594;28;20461;-87
2021/06/29 05:07:45;;;;;;;5.10;4.70;;;16.60;99.90;;;;;;5033952;28;20907;-87
2021/06/29 05:10:12;;;;;;;5.73;5.30;;;16.60;99.90;;;;;;5033657;28;20431;-87
2021/06/29 05:12:39;;;;;;;5.50;5.00;;;16.60;99.90;;;;;;5033289;28;20447;-87
2021/06/29 05:15:08;;;;;;;6.03;5.43;;;16.60;99.90;;;;;;5033670;28;20828;-87
2021/06/29 05:17:36;;;;;;;5.70;5.10;;;16.60;99.90;;;;;;5033655;28;20471;-87
2021/06/29 05:20:05;;;;;;;6.43;5.80;;;16.60;99.90;;;;;;5033974;28;20486;-87
2021/06/29 05:22:32;;;;;;;6.10;5.50;;;16.60;99.90;;;;;;5033782;28;20439;-87
2021/06/29 05:25:00;;;;;;;6.07;5.50;;;16.70;99.90;;;;;;5033505;28;20443;-87
2021/06/29 05:27:27;;;;;;;5.70;5.20;;;16.70;99.90;;;;;;5035297;28;20506;-87
2021/06/29 05:29:54;;;;;;;8.57;7.77;;;16.70;99.90;;;;;;5037982;28;20446;-87
2021/06/29 05:32:20;;;;;;;6.60;6.07;;;16.70;99.90;;;;;;5039740;28;20445;-85
2021/06/29 05:34:47;;;;;;;6.40;5.80;;;16.80;99.90;;;;;;5037129;28;20941;-86
2021/06/29 05:37:16;;;;;;;6.33;5.73;;;16.80;99.90;;;;;;5037059;28;20465;-86
2021/06/29 05:39:43;;;;;;;6.07;5.57;;;16.80;99.90;;;;;;5037157;28;20923;-88
2021/06/29 05:42:10;;;;;;;6.50;5.83;;;16.90;99.90;;;;;;5036912;28;20442;-85
2021/06/29 05:44:37;;;;;;;5.20;4.73;;;16.90;99.90;;;;;;5036797;28;20454;-85
2021/06/29 05:47:07;;;;;;;6.27;5.77;;;16.90;99.90;;;;;;5036616;28;20455;-85
2021/06/29 05:49:34;;;;;;;6.40;5.80;;;16.90;99.90;;;;;;5036967;28;20809;-86
2021/06/29 05:52:00;;;;;;;4.73;4.33;;;17.00;99.90;;;;;;5037004;28;20465;-88
2021/06/29 05:54:29;;;;;;;5.30;4.80;;;17.00;99.90;;;;;;5036806;28;20435;-85
2021/06/29 05:56:55;;;;;;;5.43;5.03;;;17.00;99.90;;;;;;5036510;28;21008;-86
2021/06/29 05:59:22;;;;;;;5.50;5.00;;;17.10;99.90;;;;;;5036370;28;20481;-85
2021/06/29 06:01:49;;;;;;;5.30;4.90;;;17.10;99.90;;;;;;5036362;28;20437;-86
2021/06/29 06:04:15;;;;;;;5.40;4.90;;;17.20;99.90;;;;;;5036753;28;20457;-86
2021/06/29 06:06:42;;;;;;;4.83;4.40;;;17.20;99.90;;;;;;5036633;28;20945;-88
2021/06/29 06:09:09;;;;;;;4.57;4.27;;;17.20;99.90;;;;;;5036551;28;20431;-88
2021/06/29 06:11:37;;;;;;;4.97;4.57;;;17.30;99.90;;;;;;5036684;28;20451;-88
2021/06/29 06:14:04;;;;;;;4.47;4.10;;;17.30;99.90;;;;;;5036375;28;20442;-88
2021/06/29 06:16:31;;;;;;;4.87;4.00;;;17.40;99.90;;;;;;5036085;28;20930;-86
2021/06/29 06:18:58;;;;;;;4.73;4.40;;;17.40;99.90;;;;;;5036083;28;20933;-85
2021/06/29 06:21:24;;;;;;;5.17;4.80;;;17.50;99.90;;;;;;5036324;28;20479;-86
2021/06/29 06:23:51;;;;;;;3.80;3.60;;;17.50;99.90;;;;;;5036218;28;20477;-87
2021/06/29 06:26:18;;;;;;;4.77;4.27;;;17.60;99.90;;;;;;5035827;28;20785;-86
2021/06/29 06:28:46;;;;;;;3.87;3.57;;;17.60;99.90;;;;;;5036071;28;20478;-86
2021/06/29 06:31:13;;;;;;;4.30;3.80;;;17.70;99.90;;;;;;5035771;28;20943;-87
2021/06/29 06:33:39;;;;;;;4.43;4.00;;;17.80;99.90;;;;;;5036016;28;20447;-87
2021/06/29 06:36:06;;;;;;;4.23;4.03;;;17.90;99.90;;;;;;5036024;28;20439;-86
2021/06/29 06:38:33;;;;;;;4.20;3.20;;;18.00;99.90;;;;;;5035607;28;20471;-86
2021/06/29 06:41:00;;;;;;;3.77;3.47;;;18.30;99.90;;;;;;5035457;28;20481;-86
2021/06/29 06:43:26;;;;;;;3.80;3.50;;;18.50;99.90;;;;;;5035591;28;20435;-86
2021/06/29 06:45:54;;;;;;;2.60;2.40;;;18.60;99.90;;;;;;5035547;28;20509;-87
2021/06/29 06:48:21;;;;;;;2.73;2.57;;;18.70;99.90;;;;;;5035624;28;20985;-87
2021/06/29 06:50:48;;;;;;;2.83;2.70;;;18.90;99.90;;;;;;5035591;28;20458;-87
2021/06/29 06:53:15;;;;;;;3.03;2.70;;;19.00;99.90;;;;;;5035579;28;20454;-87
2021/06/29 06:55:42;;;;;;;2.43;2.33;;;19.10;99.90;;;;;;5035824;28;20435;-87
2021/06/29 06:58:09;;;;;;;3.57;2.50;;;19.30;99.90;;;;;;5035538;28;20469;-88
2021/06/29 07:00:36;;;;;;;2.10;2.00;;;19.50;99.90;;;;;;5035674;28;20502;-86
2021/06/29 07:03:05;;;;;;;1.97;1.87;;;19.60;99.90;;;;;;5035045;28;20446;-87
2021/06/29 07:05:32;;;;;;;1.90;1.80;;;19.70;99.90;;;;;;5035419;28;20934;-87
2021/06/29 07:07:58;;;;;;;2.37;2.17;;;19.80;99.90;;;;;;5034901;28;20474;-85
2021/06/29 07:10:25;;;;;;;1.70;1.60;;;19.90;99.90;;;;;;5035392;28;20459;-85
2021/06/29 07:12:52;;;;;;;2.00;1.90;;;20.00;99.90;;;;;;5035069;28;20789;-86
2021/06/29 07:15:21;;;;;;;1.83;1.73;;;20.20;99.90;;;;;;5034998;28;20446;-85
2021/06/29 07:17:47;;;;;;;2.03;1.87;;;20.40;99.90;;;;;;5035965;28;20517;-86
2021/06/29 07:20:16;;;;;;;1.80;1.70;;;20.50;99.90;;;;;;5036577;28;20493;-88
2021/06/29 07:22:43;;;;;;;1.73;1.63;;;20.60;99.90;;;;;;5037897;28;20454;-86
2021/06/29 07:25:10;;;;;;;1.70;1.60;;;20.70;99.90;;;;;;5035661;28;20454;-87
2021/06/29 07:27:36;;;;;;;1.80;1.73;;;20.80;99.90;;;;;;5035336;28;20489;-86
2021/06/29 07:30:04;;;;;;;1.80;1.70;;;20.80;99.90;;;;;;5035193;28;20514;-86
2021/06/29 07:32:31;;;;;;;1.30;1.30;;;20.90;99.90;;;;;;5035578;28;20450;-87
2021/06/29 07:34:58;;;;;;;1.30;1.30;;;21.00;99.90;;;;;;5035335;28;20814;-86
2021/06/29 07:37:26;;;;;;;1.20;1.20;;;21.10;99.90;;;;;;5035198;28;20470;-86
2021/06/29 07:39:53;;;;;;;1.57;1.57;;;21.10;99.90;;;;;;5035628;28;20461;-86
2021/06/29 07:42:19;;;;;;;1.70;1.60;;;21.20;99.90;;;;;;5034494;28;20984;-87
2021/06/29 07:44:46;;;;;;;1.20;1.20;;;21.30;99.90;;;;;;5035062;28;20823;-86
2021/06/29 07:47:13;;;;;;;3.60;1.23;;;21.40;99.90;;;;;;5034468;28;20480;-86
2021/06/29 07:49:40;;;;;;;1.23;1.13;;;21.60;99.90;;;;;;5033891;28;20925;-86
2021/06/29 07:52:07;;;;;;;1.20;1.20;;;21.70;99.90;;;;;;5034484;28;20442;-86
2021/06/29 07:54:35;;;;;;;1.00;1.00;;;21.90;99.90;;;;;;5034250;28;20445;-87
2021/06/29 07:57:01;;;;;;;1.87;1.67;;;22.10;99.90;;;;;;5034372;28;20457;-85
2021/06/29 07:59:28;;;;;;;1.30;1.27;;;22.20;99.90;;;;;;5035374;28;20941;-85
2021/06/29 08:01:55;;;;;;;1.10;1.10;;;22.50;99.90;;;;;;5034340;28;20489;-85
2021/06/29 08:04:22;;;;;;;1.10;1.10;;;22.70;99.90;;;;;;5034401;28;20234;-84
2021/06/29 08:06:49;;;;;;;1.20;1.10;;;22.90;99.90;;;;;;5034386;28;20226;-86
2021/06/29 08:09:15;;;;;;;1.35;1.25;;;23.10;99.90;;;;;;5035760;28;20202;-87
2021/06/29 08:11:44;;;;;;;1.38;1.27;;;23.50;99.90;;;;;;5035406;28;20203;-84
2021/06/29 08:14:10;;;;;;;1.20;0.88;;;24.00;99.90;;;;;;5034837;28;20200;-85
2021/06/29 08:16:37;;;;;;;0.85;0.85;;;24.70;99.90;;;;;;5034478;28;20207;-85
2021/06/29 08:19:04;;;;;;;0.80;0.80;;;25.10;99.90;;;;;;5034063;28;20199;-85
2021/06/29 08:21:31;;;;;;;0.80;0.80;;;25.60;99.90;;;;;;5034750;28;20251;-86
2021/06/29 08:23:58;;;;;;;0.90;0.90;;;25.90;99.90;;;;;;5035124;28;20203;-86
2021/06/29 08:26:24;;;;;;;0.82;0.82;;;26.20;99.90;;;;;;5034406;28;20199;-86
2021/06/29 08:28:53;;;;;;;10.02;2.22;;;26.00;99.90;;;;;;5033846;28;20227;-87
2021/06/29 08:31:21;;;;;;;0.88;0.88;;;26.00;99.90;;;;;;5033796;28;20199;-85
2021/06/29 08:33:48;;;;;;;0.93;0.82;;;25.90;99.90;;;;;;5033332;28;20826;-85
2021/06/29 08:36:16;;;;;;;1.13;0.82;;;26.00;99.90;;;;;;5033808;28;20572;-87
2021/06/29 08:38:43;;;;;;;1.00;0.90;;;25.90;99.90;;;;;;5033366;28;20230;-85
2021/06/29 08:41:11;;;;;;;1.23;0.90;;;25.80;99.90;;;;;;5033414;28;20223;-86
2021/06/29 08:43:39;;;;;;;0.93;0.93;;;25.40;99.90;;;;;;5033584;28;20199;-86
2021/06/29 08:46:07;;;;;;;0.88;0.80;;;25.00;99.90;;;;;;5033124;28;20230;-82
2021/06/29 08:48:34;;;;;;;1.10;1.10;;;24.70;99.90;;;;;;5038327;28;20211;-85
2021/06/29 08:51:04;;;;;;;1.02;1.00;;;24.50;99.90;;;;;;5038825;28;20204;-82
2021/06/29 08:53:31;;;;;;;1.30;1.30;;;24.40;99.90;;;;;;5040251;28;20203;-83
2021/06/29 08:56:00;;;;;;;1.10;1.10;;;24.10;99.90;;;;;;5043059;28;20266;-85
2021/06/29 08:58:28;;;;;;;1.33;1.10;;;24.20;99.90;;;;;;5041503;28;20249;-83
2021/06/29 09:00:56;;;;;;;1.08;1.08;;;24.20;99.90;;;;;;5044604;28;20223;-84
2021/06/29 09:03:24;;;;;;;0.90;0.90;;;24.20;99.90;;;;;;5049312;28;20205;-84
2021/06/29 09:05:52;;;;;;;0.90;0.90;;;24.10;99.90;;;;;;5046283;28;20663;-84
2021/06/29 09:08:21;;;;;;;1.50;1.40;;;24.00;99.90;;;;;;5046771;28;20262;-84
2021/06/29 09:11:06;;;;;;;1.10;1.10;;;24.00;99.90;;;;;;5042647;28;20210;-84
2021/06/29 09:13:32;;;;;;;1.45;1.45;;;24.00;99.90;;;;;;5047637;28;20730;-83
2021/06/29 09:15:59;;;;;;;1.42;1.20;;;24.10;99.90;;;;;;5046861;28;20652;-83
2021/06/29 09:18:30;;;;;;;1.35;1.25;;;24.30;99.90;;;;;;5041866;28;20227;-83
2021/06/29 09:20:59;;;;;;;1.58;1.50;;;24.30;99.90;;;;;;5041253;28;20222;-84
2021/06/29 09:23:27;;;;;;;1.55;1.10;;;24.30;99.90;;;;;;5043179;28;20206;-84
2021/06/29 09:25:57;;;;;;;1.30;1.20;;;24.50;99.90;;;;;;5040009;28;20207;-84
2021/06/29 09:28:26;;;;;;;1.70;1.60;;;24.60;99.90;;;;;;5040602;28;20226;-84
2021/06/29 09:30:54;;;;;;;1.30;1.30;;;24.50;99.90;;;;;;5045324;28;20227;-84
2021/06/29 09:33:22;;;;;;;1.77;1.60;;;24.40;99.90;;;;;;5045301;28;20210;-84
2021/06/29 09:35:53;;;;;;;2.05;1.73;;;24.50;99.90;;;;;;5045728;28;20585;-84
2021/06/29 09:38:22;;;;;;;1.17;1.17;;;24.70;99.90;;;;;;5044199;28;20229;-84
2021/06/29 09:40:55;;;;;;;1.60;1.50;;;24.70;99.90;;;;;;5041890;28;20227;-85
2021/06/29 09:43:23;;;;;;;1.30;1.20;;;25.00;99.90;;;;;;5042044;28;20203;-83
2021/06/29 09:45:52;;;;;;;1.33;1.23;;;25.50;99.90;;;;;;5041858;28;20246;-83
2021/06/29 09:48:27;;;;;;;1.02;1.02;;;25.80;99.90;;;;;;5042363;28;20253;-83
2021/06/29 09:51:00;;;;;;;1.55;1.50;;;25.90;99.90;;;;;;5043333;28;20189;-84
2021/06/29 09:53:30;;;;;;;1.50;1.40;;;25.80;99.90;;;;;;5047783;28;20569;-84
2021/06/29 09:56:00;;;;;;;1.35;1.35;;;25.40;99.90;;;;;;5043253;28;20195;-84
2021/06/29 09:58:27;;;;;;;1.52;1.42;;;25.40;99.90;;;;;;5047764;28;20223;-83
2021/06/29 10:00:56;;;;;;;1.60;1.50;;;25.40;99.90;;;;;;5045325;28;20582;-84
2021/06/29 10:03:28;;;;;;;1.40;1.30;;;25.20;99.90;;;;;;5044801;28;20219;-84
2021/06/29 10:05:59;;;;;;;1.75;1.17;;;25.10;99.90;;;;;;5045386;28;20208;-84
2021/06/29 10:08:31;;;;;;;1.20;1.20;;;25.00;99.90;;;;;;5045527;28;20223;-84
2021/06/29 10:11:22;;;;;;;1.55;1.45;;;25.20;99.90;;;;;;5046966;28;20190;-84
2021/06/29 10:13:59;;;;;;;1.35;1.20;;;25.50;99.90;;;;;;5027602;28;20692;-83
2021/06/29 10:16:28;;;;;;;1.55;1.17;;;25.40;99.90;;;;;;5044703;28;20234;-83
2021/06/29 10:21:52;;;;;;;1.20;1.20;;;24.90;99.90;;;;;;5005072;28;20230;-84
2021/06/29 10:24:21;;;;;;;1.50;1.45;;;24.70;99.90;;;;;;5037857;28;20215;-85
2021/06/29 10:26:50;;;;;;;1.73;1.50;;;24.40;99.90;;;;;;5038093;28;20199;-85
2021/06/29 10:29:19;;;;;;;1.98;1.88;;;24.40;99.90;;;;;;5037307;28;20571;-84
2021/06/29 10:31:50;;;;;;;1.55;1.42;;;24.60;99.90;;;;;;5041820;28;20195;-84
2021/06/29 10:34:17;;;;;;;1.30;1.30;;;25.00;99.90;;;;;;5038233;28;20184;-86
2021/06/29 10:36:46;;;;;;;4.43;1.83;;;25.40;99.90;;;;;;5037326;28;20188;-85
2021/06/29 10:39:15;;;;;;;1.60;1.50;;;25.50;99.90;;;;;;5036632;28;20180;-85
2021/06/29 10:41:45;;;;;;;2.05;1.95;;;25.40;99.90;;;;;;5035607;28;20226;-84
2021/06/29 10:44:13;;;;;;;2.13;1.75;;;25.30;99.90;;;;;;5037674;28;20666;-84
2021/06/29 10:46:43;;;;;;;1.52;1.35;;;25.20;99.90;;;;;;5044195;28;20243;-84
2021/06/29 10:52:46;;;;;;;2.05;1.95;;;25.20;99.90;;;;;;5044288;28;20178;-84
2021/06/29 10:55:24;;;;;;;4.68;1.23;;;25.30;99.90;;;;;;4938281;29;20194;-84
2021/06/29 10:57:53;;;;;;;1.70;1.60;;;25.50;99.90;;;;;;5028650;28;20253;-84
2021/06/29 11:00:26;;;;;;;1.85;1.75;;;25.80;99.90;;;;;;5038383;28;20196;-84
2021/06/29 11:03:04;;;;;;;1.42;1.40;;;26.00;99.90;;;;;;5036250;28;20227;-85
2021/06/29 11:05:32;;;;;;;2.10;1.33;;;26.20;99.90;;;;;;5036980;28;20256;-85
2021/06/29 11:08:06;;;;;;;1.90;1.45;;;26.20;99.90;;;;;;5038597;28;20230;-84
2021/06/29 11:10:36;;;;;;;1.70;1.60;;;26.20;99.90;;;;;;5035060;28;20187;-85
2021/06/29 11:13:05;;;;;;;1.50;1.50;;;25.80;99.90;;;;;;5035109;28;20219;-85
2021/06/29 11:15:49;;;;;;;1.55;1.55;;;25.50;99.90;;;;;;5034651;28;20643;-84
2021/06/29 11:18:17;;;;;;;1.42;1.33;;;25.20;99.90;;;;;;5034376;28;20242;-85
2021/06/29 11:20:46;;;;;;;1.77;1.67;;;25.30;99.90;;;;;;5038437;28;20558;-84
2021/06/29 11:23:29;;;;;;;2.10;1.98;;;25.40;99.90;;;;;;5042232;28;20192;-84
2021/06/29 11:26:01;;;;;;;1.58;1.48;;;25.50;99.90;;;;;;5038555;28;20623;-85
2021/06/29 11:28:34;;;;;;;1.58;1.55;;;25.60;99.90;;;;;;5035485;28;20220;-84
2021/06/29 11:31:11;;;;;;;1.27;1.17;;;25.60;99.90;;;;;;5034863;28;20192;-84
2021/06/29 11:33:43;;;;;;;1.67;1.67;;;25.60;99.90;;;;;;5037008;28;20203;-84
2021/06/29 11:36:38;;;;;;;1.85;1.75;;;25.60;99.90;;;;;;5037749;28;20198;-84
2021/06/29 11:39:24;;;;;;;1.50;1.50;;;25.60;99.90;;;;;;5035853;28;20187;-84
2021/06/29 11:41:55;;;;;;;1.58;1.52;;;25.60;99.90;;;;;;5034725;28;20579;-84
2021/06/29 11:45:02;;;;;;;1.52;1.42;;;25.60;99.90;;;;;;5045265;28;20199;-85
2021/06/29 11:47:38;;;;;;;1.88;1.77;;;25.60;99.90;;;;;;4942223;29;20258;-85
2021/06/29 11:50:19;;;;;;;1.70;1.60;;;25.50;99.90;;;;;;4996501;28;20208;-86
2021/06/29 11:52:46;;;;;;;2.03;1.92;;;25.40;99.90;;;;;;5002515;28;20197;-86
2021/06/29 11:55:17;;;;;;;1.50;1.50;;;25.40;99.90;;;;;;4999487;28;20216;-85
2021/06/29 11:57:48;;;;;;;1.50;1.40;;;25.40;99.90;;;;;;4998229;28;20224;-87
2021/06/29 12:00:24;;;;;;;1.33;1.23;;;25.40;99.90;;;;;;4998705;28;20189;-85
2021/06/29 12:02:54;;;;;;;1.40;1.40;;;25.30;99.90;;;;;;4997224;28;20213;-86
2021/06/29 12:05:23;;;;;;;1.95;1.85;;;25.40;99.90;;;;;;4995841;28;20239;-85
2021/06/29 12:07:52;;;;;;;1.80;1.70;;;25.30;99.90;;;;;;4995341;28;20229;-85
2021/06/29 12:10:21;;;;;;;1.58;1.48;;;25.30;99.90;;;;;;4994726;28;20201;-86
2021/06/29 12:12:50;;;;;;;1.50;1.40;;;25.20;99.90;;;;;;4995862;28;20695;-85
2021/06/29 12:15:20;;;;;;;2.78;1.25;;;25.20;99.90;;;;;;4996068;28;20208;-86
2021/06/29 12:17:50;;;;;;;1.40;1.30;;;25.30;99.90;;;;;;4995916;28;20234;-86
2021/06/29 12:20:19;;;;;;;2.15;1.40;;;25.40;99.90;;;;;;4994586;28;20209;-86
2021/06/29 12:22:48;;;;;;;2.08;1.38;;;25.40;99.90;;;;;;4994841;28;20225;-84
2021/06/29 12:25:26;;;;;;;1.70;1.60;;;25.40;99.90;;;;;;4994834;28;20209;-85
2021/06/29 12:27:57;;;;;;;1.98;1.60;;;25.20;99.90;;;;;;4994374;28;20593;-85
2021/06/29 12:30:37;;;;;;;1.85;1.50;;;24.90;99.90;;;;;;4994549;28;20196;-86
2021/06/29 12:33:21;;;;;;;2.08;1.48;;;24.70;99.90;;;;;;4995142;28;20189;-86
2021/06/29 12:35:52;;;;;;;1.70;1.60;;;24.40;99.90;;;;;;4993944;28;20287;-85
2021/06/29 12:38:21;;;;;;;1.52;1.52;;;24.10;99.90;;;;;;4994234;28;20224;-85
2021/06/29 12:40:50;;;;;;;0.93;0.93;;;23.90;99.90;;;;;;4994171;28;20200;-84
2021/06/29 12:43:21;;;;;;;2.50;0.60;;;23.40;99.90;;;;;;4994112;28;20228;-83
2021/06/29 12:45:48;;;;;;;0.93;0.53;;;23.00;99.90;;;;;;5014235;28;20234;-85
2021/06/29 12:48:17;;;;;;;0.80;0.47;;;22.50;99.90;;;;;;5033430;28;20219;-86
2021/06/29 12:50:59;;;;;;;0.50;0.50;;;22.00;99.90;;;;;;5033683;28;20545;-84
2021/06/29 12:53:26;;;;;;;0.60;0.50;;;21.20;99.90;;;;;;5034061;28;20423;-86
2021/06/29 12:55:53;;;;;;;1.33;0.93;;;20.80;99.90;;;;;;5033078;28;20452;-84
2021/06/29 12:58:21;;;;;;;2.10;0.97;;;20.30;99.90;;;;;;5033120;28;20470;-83
2021/06/29 13:00:52;;;;;;;1.63;0.70;;;19.90;99.90;;;;;;5033204;28;20447;-83